Time;durP1;ratioP1;P1;durP2;ratioP2;P2;SDS_P1;SDS_P2;PMS_P1;PMS_P2;Temp;Humidity;BMP_temperature;BMP_pressure;BME280_temperature;BME280_humidity;BME280_pressure;Samples;Min_cycle;Max_cycle;Signal;HPM_P1;HPM_P2
2021/06/08 00:01:40;;;;;;;38.03;27.20;;;16.30;99.90;;;;;;5066415;28;20206;-68
2021/06/08 00:04:07;;;;;;;34.60;26.60;;;16.40;99.90;;;;;;5065236;28;20718;-69
2021/06/08 00:06:33;;;;;;;35.05;26.20;;;16.40;99.90;;;;;;5069443;28;20205;-69
2021/06/08 00:09:01;;;;;;;35.83;25.45;;;16.40;99.90;;;;;;5058629;28;20206;-69
2021/06/08 00:11:27;;;;;;;33.08;24.85;;;16.50;99.90;;;;;;5068190;28;20213;-69
2021/06/08 00:13:53;;;;;;;35.33;24.38;;;16.40;99.90;;;;;;5067568;28;20209;-69
2021/06/08 00:16:20;;;;;;;36.10;26.80;;;16.40;99.90;;;;;;5065215;28;20584;-69
2021/06/08 00:18:46;;;;;;;32.63;24.85;;;16.40;99.90;;;;;;5065698;28;20212;-71
2021/06/08 00:21:13;;;;;;;35.88;25.65;;;16.40;99.90;;;;;;5063182;28;20209;-70
2021/06/08 00:23:39;;;;;;;35.20;23.50;;;16.40;99.90;;;;;;5067373;28;20226;-70
2021/06/08 00:26:07;;;;;;;33.45;25.17;;;16.30;99.90;;;;;;5062825;28;20725;-70
2021/06/08 00:28:33;;;;;;;37.58;25.73;;;16.20;99.90;;;;;;5057542;28;20572;-71
2021/06/08 00:30:59;;;;;;;33.88;24.40;;;16.30;99.90;;;;;;5062993;28;20202;-70
2021/06/08 00:33:26;;;;;;;32.47;24.85;;;16.30;99.90;;;;;;5063072;28;20543;-70
2021/06/08 00:35:52;;;;;;;32.15;24.23;;;16.30;99.90;;;;;;5067449;28;20657;-70
2021/06/08 00:38:18;;;;;;;33.72;25.25;;;16.30;99.90;;;;;;5066768;28;20223;-71
2021/06/08 00:40:45;;;;;;;30.83;23.83;;;16.30;99.90;;;;;;5066073;28;20218;-70
2021/06/08 00:43:13;;;;;;;33.13;24.08;;;16.30;99.90;;;;;;5072291;28;20688;-70
2021/06/08 00:45:39;;;;;;;31.90;25.50;;;16.30;99.90;;;;;;5073418;28;20206;-70
2021/06/08 00:48:06;;;;;;;31.67;24.13;;;16.20;99.90;;;;;;5071537;28;20210;-70
2021/06/08 00:50:33;;;;;;;32.38;23.98;;;16.30;99.90;;;;;;5071691;28;20260;-70
2021/06/08 00:52:59;;;;;;;32.63;25.10;;;16.40;99.90;;;;;;5071493;28;20202;-70
2021/06/08 00:55:25;;;;;;;31.55;23.65;;;16.30;99.90;;;;;;5072151;28;20577;-70
2021/06/08 00:57:52;;;;;;;32.40;23.88;;;16.30;99.90;;;;;;5072229;28;20213;-70
2021/06/08 01:00:21;;;;;;;33.10;24.63;;;16.40;99.90;;;;;;5063071;28;20210;-70
2021/06/08 01:02:47;;;;;;;31.75;23.15;;;16.30;99.90;;;;;;5067154;28;20218;-70
2021/06/08 01:05:13;;;;;;;29.40;22.23;;;16.30;99.90;;;;;;5068595;28;20199;-70
2021/06/08 01:07:40;;;;;;;30.73;23.52;;;16.30;99.90;;;;;;5060439;28;20550;-70
2021/06/08 01:10:11;;;;;;;33.38;24.80;;;16.20;99.90;;;;;;5063481;28;20195;-70
2021/06/08 01:12:37;;;;;;;32.83;23.25;;;16.20;99.90;;;;;;5064845;28;20566;-70
2021/06/08 01:15:05;;;;;;;33.20;23.60;;;16.20;99.90;;;;;;5063105;28;20210;-70
2021/06/08 01:17:32;;;;;;;30.15;22.77;;;16.20;99.90;;;;;;5068312;28;20211;-70
2021/06/08 01:19:59;;;;;;;30.15;23.58;;;16.20;99.90;;;;;;5064024;28;20210;-70
2021/06/08 01:22:29;;;;;;;31.60;24.10;;;16.20;99.90;;;;;;5057983;28;20203;-70
2021/06/08 01:24:55;;;;;;;31.77;23.83;;;16.20;99.90;;;;;;5062336;28;20218;-70
2021/06/08 01:27:23;;;;;;;31.38;24.23;;;16.10;99.90;;;;;;5060852;28;20668;-70
2021/06/08 01:29:51;;;;;;;31.90;23.55;;;16.00;99.90;;;;;;5066085;28;20659;-70
2021/06/08 01:32:22;;;;;;;33.53;24.48;;;16.00;99.90;;;;;;5058463;28;20199;-70
2021/06/08 01:34:49;;;;;;;35.77;23.53;;;16.00;99.90;;;;;;5063667;28;20220;-70
2021/06/08 01:37:16;;;;;;;32.40;24.00;;;15.90;99.90;;;;;;5063964;28;20199;-70
2021/06/08 01:39:46;;;;;;;31.80;25.77;;;15.90;99.90;;;;;;5068352;28;20209;-70
2021/06/08 01:42:14;;;;;;;32.60;25.40;;;15.90;99.90;;;;;;5058032;28;20199;-70
2021/06/08 01:44:42;;;;;;;32.90;24.30;;;16.00;99.90;;;;;;5062983;28;20312;-70
2021/06/08 01:47:09;;;;;;;31.23;23.67;;;15.90;99.90;;;;;;5060647;28;20209;-70
2021/06/08 01:49:35;;;;;;;33.30;24.80;;;15.90;99.90;;;;;;5065047;28;20235;-70
2021/06/08 01:52:13;;;;;;;33.58;25.90;;;15.90;99.90;;;;;;5068631;28;20213;-70
2021/06/08 01:54:48;;;;;;;35.23;25.33;;;15.90;99.90;;;;;;5063461;28;20202;-70
2021/06/08 01:57:18;;;;;;;32.08;24.02;;;16.00;99.90;;;;;;5061407;28;20201;-70
2021/06/08 01:59:57;;;;;;;34.07;25.20;;;16.00;99.90;;;;;;5064621;28;20211;-70
2021/06/08 02:02:28;;;;;;;31.60;24.43;;;16.00;99.90;;;;;;5064985;28;20198;-70
2021/06/08 02:05:04;;;;;;;32.63;25.20;;;15.90;99.90;;;;;;5069713;28;20206;-70
2021/06/08 02:07:41;;;;;;;31.70;24.20;;;15.90;99.90;;;;;;5059172;28;20247;-70
2021/06/08 02:10:31;;;;;;;31.73;26.08;;;15.80;99.90;;;;;;5069415;28;20689;-70
2021/06/08 02:13:10;;;;;;;34.20;24.63;;;15.80;99.90;;;;;;5061184;28;20202;-70
2021/06/08 02:15:54;;;;;;;31.80;23.95;;;15.80;99.90;;;;;;5067933;28;20560;-70
2021/06/08 02:18:23;;;;;;;32.80;24.97;;;15.80;99.90;;;;;;5068123;28;20208;-70
2021/06/08 02:20:51;;;;;;;31.70;23.65;;;15.70;99.90;;;;;;5060924;28;20206;-69
2021/06/08 02:23:21;;;;;;;31.30;23.33;;;15.70;99.90;;;;;;5067911;28;20248;-69
2021/06/08 02:25:51;;;;;;;29.77;23.65;;;15.60;99.90;;;;;;5063801;28;20209;-69
2021/06/08 02:28:21;;;;;;;34.47;24.23;;;15.50;99.90;;;;;;5064778;28;20205;-69
2021/06/08 02:30:48;;;;;;;37.67;27.00;;;15.60;99.90;;;;;;5064514;28;20251;-69
2021/06/08 02:33:16;;;;;;;34.78;24.38;;;15.50;99.90;;;;;;5063808;28;20249;-69
2021/06/08 02:35:44;;;;;;;33.35;23.85;;;15.60;99.90;;;;;;5062350;28;20195;-70
2021/06/08 02:38:11;;;;;;;29.87;23.30;;;15.50;99.90;;;;;;5064674;28;20214;-69
2021/06/08 02:40:39;;;;;;;31.47;24.60;;;15.40;99.90;;;;;;5060812;28;20207;-69
2021/06/08 02:43:08;;;;;;;31.13;24.27;;;15.40;99.90;;;;;;5062558;28;20565;-69
2021/06/08 02:45:35;;;;;;;31.97;24.33;;;15.50;99.90;;;;;;5060435;28;20206;-69
2021/06/08 02:48:02;;;;;;;31.97;23.27;;;15.40;99.90;;;;;;5062323;28;20257;-69
2021/06/08 02:50:30;;;;;;;29.33;22.70;;;15.40;99.90;;;;;;5064068;28;20210;-69
2021/06/08 02:52:56;;;;;;;31.50;23.73;;;15.30;99.90;;;;;;5066421;28;20661;-69
2021/06/08 02:55:25;;;;;;;30.07;23.87;;;15.30;99.90;;;;;;5061920;28;20214;-69
2021/06/08 02:57:53;;;;;;;34.17;25.93;;;15.20;99.90;;;;;;5067649;28;20207;-69
2021/06/08 03:00:22;;;;;;;33.05;23.55;;;15.20;99.90;;;;;;5062478;28;20260;-70
2021/06/08 03:02:52;;;;;;;31.27;23.33;;;15.20;99.90;;;;;;5068121;28;20234;-71
2021/06/08 03:05:24;;;;;;;31.33;24.53;;;15.10;99.90;;;;;;5060602;28;20217;-71
2021/06/08 03:07:56;;;;;;;31.58;24.98;;;15.10;99.90;;;;;;5066726;28;20206;-70
2021/06/08 03:10:24;;;;;;;29.87;24.20;;;15.10;99.90;;;;;;5062517;28;20566;-71
2021/06/08 03:12:55;;;;;;;31.92;24.30;;;15.10;99.90;;;;;;5066221;28;20202;-71
2021/06/08 03:15:26;;;;;;;35.17;24.27;;;15.20;99.90;;;;;;5061925;28;20683;-71
2021/06/08 03:17:52;;;;;;;39.83;26.43;;;15.30;99.90;;;;;;5064315;28;20253;-70
2021/06/08 03:20:24;;;;;;;34.93;25.70;;;15.30;99.90;;;;;;5064294;28;20203;-70
2021/06/08 03:22:52;;;;;;;33.63;25.87;;;15.20;99.90;;;;;;5064580;28;20719;-71
2021/06/08 03:25:21;;;;;;;35.17;26.43;;;15.20;99.90;;;;;;5067413;28;21023;-71
2021/06/08 03:27:49;;;;;;;33.97;26.13;;;15.20;99.90;;;;;;5069695;28;20201;-70
2021/06/08 03:30:16;;;;;;;36.27;26.50;;;15.10;99.90;;;;;;5065064;28;20203;-71
2021/06/08 03:32:44;;;;;;;35.00;25.43;;;15.20;99.90;;;;;;5061413;28;20203;-71
2021/06/08 03:35:12;;;;;;;35.73;26.13;;;15.10;99.90;;;;;;5065800;28;20206;-70
2021/06/08 03:37:40;;;;;;;34.50;25.10;;;15.10;99.90;;;;;;5067625;28;20198;-71
2021/06/08 03:40:07;;;;;;;34.63;25.77;;;15.20;99.90;;;;;;5069058;28;20198;-71
2021/06/08 03:42:34;;;;;;;31.50;25.07;;;15.20;99.90;;;;;;5066731;28;20293;-71
2021/06/08 03:45:00;;;;;;;34.13;26.00;;;15.20;99.90;;;;;;5068679;28;20244;-70
2021/06/08 03:47:27;;;;;;;33.70;25.60;;;15.10;99.90;;;;;;5069542;28;20290;-70
2021/06/08 03:52:38;;;;;;;31.57;24.10;;;15.20;99.90;;;;;;5069919;22;20227;-71
2021/06/08 03:55:07;;;;;;;31.98;24.38;;;15.20;99.90;;;;;;5062227;28;20198;-73
2021/06/08 03:57:39;;;;;;;41.17;34.33;;;15.20;99.90;;;;;;5056380;28;20202;-73
2021/06/08 04:00:06;;;;;;;36.00;27.83;;;15.20;99.90;;;;;;5063718;28;20207;-73
2021/06/08 04:02:34;;;;;;;32.77;25.33;;;15.30;99.90;;;;;;5067448;28;20198;-73
2021/06/08 04:05:02;;;;;;;33.70;25.17;;;15.30;99.90;;;;;;5067666;28;20206;-73
2021/06/08 04:07:28;;;;;;;31.25;23.83;;;15.40;99.90;;;;;;5065396;28;20263;-73
2021/06/08 04:09:55;;;;;;;30.97;23.07;;;15.80;99.90;;;;;;5061428;28;20203;-73
2021/06/08 04:12:21;;;;;;;30.27;22.83;;;15.90;99.90;;;;;;5059848;28;20209;-73
2021/06/08 04:14:49;;;;;;;29.63;22.30;;;16.10;99.90;;;;;;5060900;28;20217;-73
2021/06/08 04:17:16;;;;;;;28.80;22.50;;;16.30;99.90;;;;;;5057560;28;20301;-73
2021/06/08 04:19:44;;;;;;;29.08;22.27;;;16.50;99.90;;;;;;5059394;28;20243;-73
2021/06/08 04:22:26;;;;;;;27.83;21.17;;;16.60;99.90;;;;;;5069659;28;20206;-73
2021/06/08 04:24:53;;;;;;;26.33;20.60;;;16.50;99.90;;;;;;5037642;28;20233;-73
2021/06/08 04:27:22;;;;;;;25.33;20.40;;;16.20;99.90;;;;;;5068867;28;20198;-73
2021/06/08 04:29:49;;;;;;;28.42;20.92;;;16.00;99.90;;;;;;5068245;28;20279;-73
2021/06/08 04:32:15;;;;;;;27.60;20.05;;;15.70;99.90;;;;;;5057298;28;20652;-73
2021/06/08 04:34:46;;;;;;;26.85;20.27;;;15.80;99.90;;;;;;5062535;28;20191;-73
2021/06/08 04:37:13;;;;;;;25.23;20.13;;;16.10;99.90;;;;;;5067736;28;20697;-73
2021/06/08 04:39:40;;;;;;;27.27;20.20;;;16.10;99.90;;;;;;5067957;28;20199;-73
2021/06/08 04:42:09;;;;;;;26.75;20.70;;;16.10;99.90;;;;;;5069619;28;20202;-73
2021/06/08 04:44:35;;;;;;;24.15;18.15;;;16.10;99.90;;;;;;5070125;28;20226;-73
2021/06/08 04:47:02;;;;;;;27.70;19.73;;;16.20;99.90;;;;;;5066334;28;20203;-73
2021/06/08 04:49:29;;;;;;;25.35;21.38;;;16.20;99.90;;;;;;5064960;28;20199;-73
2021/06/08 04:51:55;;;;;;;28.80;23.80;;;16.00;99.90;;;;;;5067504;28;20255;-73
2021/06/08 04:54:24;;;;;;;27.33;20.27;;;16.00;99.90;;;;;;5061291;28;20233;-73
2021/06/08 04:56:51;;;;;;;26.92;19.88;;;16.00;99.90;;;;;;5064126;28;20220;-73
2021/06/08 04:59:22;;;;;;;27.52;19.63;;;16.00;99.90;;;;;;5063256;28;20208;-73
2021/06/08 05:01:50;;;;;;;24.52;18.45;;;16.10;99.90;;;;;;5066382;28;20221;-72
2021/06/08 05:04:19;;;;;;;27.23;18.88;;;16.10;99.90;;;;;;5058528;28;20215;-73
2021/06/08 05:06:52;;;;;;;25.67;19.98;;;16.30;99.90;;;;;;5069180;28;20579;-73
2021/06/08 05:09:22;;;;;;;25.55;18.30;;;16.20;99.90;;;;;;5067068;28;20585;-73
2021/06/08 05:11:53;;;;;;;22.73;17.83;;;16.10;99.90;;;;;;5067071;28;20212;-73
2021/06/08 05:14:21;;;;;;;26.37;18.53;;;16.00;99.90;;;;;;5053102;28;20541;-73
2021/06/08 05:16:49;;;;;;;24.23;19.65;;;16.10;99.90;;;;;;5060033;28;20671;-73
2021/06/08 05:19:18;;;;;;;28.15;19.25;;;16.10;99.90;;;;;;5065912;28;20204;-73
2021/06/08 05:21:47;;;;;;;27.08;20.33;;;16.20;99.90;;;;;;5070885;28;20656;-73
2021/06/08 05:24:15;;;;;;;28.90;21.65;;;16.30;99.90;;;;;;5069823;28;20691;-73
2021/06/08 05:26:43;;;;;;;29.55;20.77;;;16.40;99.90;;;;;;5070448;28;20205;-73
2021/06/08 05:29:11;;;;;;;33.50;22.30;;;16.40;99.90;;;;;;5057046;28;20682;-73
2021/06/08 05:31:37;;;;;;;30.73;22.50;;;16.40;99.90;;;;;;5063315;28;20195;-73
2021/06/08 05:34:04;;;;;;;27.95;20.80;;;16.10;99.90;;;;;;5058280;28;20713;-73
2021/06/08 05:36:31;;;;;;;28.98;21.58;;;16.40;99.90;;;;;;5063253;28;20251;-73
2021/06/08 05:38:57;;;;;;;29.60;21.48;;;16.30;99.90;;;;;;5066603;28;20668;-73
2021/06/08 05:41:24;;;;;;;32.78;23.45;;;16.40;99.90;;;;;;5056982;28;20201;-73
2021/06/08 05:43:50;;;;;;;32.20;23.48;;;16.40;99.90;;;;;;5065169;28;20325;-73
2021/06/08 05:46:18;;;;;;;35.03;24.52;;;16.50;99.90;;;;;;5052262;28;20213;-73
2021/06/08 05:48:44;;;;;;;31.05;22.00;;;16.60;99.90;;;;;;5056559;28;20213;-73
2021/06/08 05:51:12;;;;;;;33.60;23.27;;;16.50;99.90;;;;;;5053492;28;20210;-73
2021/06/08 05:53:40;;;;;;;32.00;23.98;;;16.50;99.90;;;;;;5061590;28;20586;-72
2021/06/08 05:56:07;;;;;;;30.85;23.33;;;16.30;99.90;;;;;;5053113;28;20542;-73
2021/06/08 05:58:35;;;;;;;33.63;24.65;;;16.30;99.90;;;;;;5063238;28;20268;-73
2021/06/08 06:01:04;;;;;;;34.53;23.10;;;16.40;99.90;;;;;;5055774;28;20202;-73
2021/06/08 06:03:34;;;;;;;35.97;24.98;;;16.60;99.90;;;;;;5060713;28;20242;-73
2021/06/08 06:06:04;;;;;;;35.72;25.05;;;16.60;99.90;;;;;;5052055;28;20229;-73
2021/06/08 06:08:31;;;;;;;33.53;24.48;;;16.40;99.90;;;;;;5067568;28;20202;-72
2021/06/08 06:10:59;;;;;;;33.70;25.00;;;16.30;99.90;;;;;;5054838;28;20203;-73
2021/06/08 06:13:28;;;;;;;31.85;23.35;;;16.30;99.90;;;;;;5066678;28;20194;-73
2021/06/08 06:15:56;;;;;;;32.15;24.17;;;16.40;99.90;;;;;;5055984;28;20648;-73
2021/06/08 06:18:24;;;;;;;30.15;21.90;;;16.30;99.90;;;;;;5066594;28;20206;-73
2021/06/08 06:20:53;;;;;;;31.60;21.80;;;16.30;99.90;;;;;;5068384;28;20213;-73
2021/06/08 06:23:21;;;;;;;32.10;25.10;;;16.50;99.90;;;;;;5063803;28;20256;-73
2021/06/08 06:25:49;;;;;;;34.78;24.08;;;16.20;99.90;;;;;;5053764;28;20221;-73
2021/06/08 06:28:17;;;;;;;30.20;22.40;;;16.40;99.90;;;;;;5065310;28;20213;-73
2021/06/08 06:30:44;;;;;;;32.67;22.27;;;16.60;99.90;;;;;;5057485;28;20214;-73
2021/06/08 06:33:11;;;;;;;30.33;22.90;;;16.30;99.90;;;;;;5062048;28;20195;-72
2021/06/08 06:35:38;;;;;;;28.85;21.80;;;16.40;99.90;;;;;;5061805;28;20206;-72
2021/06/08 06:38:08;;;;;;;31.23;23.02;;;16.40;99.90;;;;;;5068343;28;20625;-73
2021/06/08 06:40:38;;;;;;;29.20;22.70;;;16.50;99.90;;;;;;5065306;28;20594;-73
2021/06/08 06:43:06;;;;;;;30.27;20.67;;;16.50;99.90;;;;;;5067581;28;20214;-73
2021/06/08 06:45:36;;;;;;;29.48;21.80;;;16.60;99.90;;;;;;5068799;28;20553;-73
2021/06/08 06:48:03;;;;;;;29.00;21.15;;;16.60;99.90;;;;;;5064110;28;20203;-73
2021/06/08 06:50:31;;;;;;;27.48;21.63;;;16.60;99.90;;;;;;5066471;28;20199;-73
2021/06/08 06:52:58;;;;;;;27.23;20.23;;;16.70;99.90;;;;;;5067300;28;20256;-73
2021/06/08 06:55:27;;;;;;;29.25;22.08;;;16.70;99.90;;;;;;5065340;28;20206;-71
2021/06/08 06:57:55;;;;;;;28.23;22.17;;;16.60;99.90;;;;;;5063300;28;20207;-70
2021/06/08 07:00:23;;;;;;;28.83;21.60;;;16.50;99.90;;;;;;5068903;28;20198;-70
2021/06/08 07:02:52;;;;;;;32.78;22.65;;;16.80;99.90;;;;;;5066386;28;20199;-72
2021/06/08 07:05:21;;;;;;;29.67;21.48;;;16.90;99.90;;;;;;5061394;28;20199;-71
2021/06/08 07:07:49;;;;;;;31.60;23.48;;;16.80;99.90;;;;;;5064412;28;20617;-71
2021/06/08 07:10:18;;;;;;;28.55;21.42;;;16.60;99.90;;;;;;5066031;28;20596;-71
2021/06/08 07:12:47;;;;;;;27.15;20.52;;;16.70;99.90;;;;;;5064053;28;20215;-71
2021/06/08 07:15:15;;;;;;;27.65;20.52;;;17.10;99.90;;;;;;5063842;28;20196;-71
2021/06/08 07:17:41;;;;;;;30.85;22.27;;;17.20;99.90;;;;;;5065575;28;20207;-71
2021/06/08 07:20:11;;;;;;;31.45;22.38;;;17.20;99.90;;;;;;5061381;28;20199;-71
2021/06/08 07:22:39;;;;;;;30.52;23.00;;;17.30;99.90;;;;;;5065643;28;20280;-71
2021/06/08 07:25:07;;;;;;;28.67;21.15;;;17.20;99.90;;;;;;5062717;28;20225;-71
2021/06/08 07:27:34;;;;;;;30.52;21.80;;;17.10;99.90;;;;;;5054197;28;20205;-71
2021/06/08 07:30:03;;;;;;;30.05;20.95;;;17.00;99.90;;;;;;5052752;28;20211;-71
2021/06/08 07:32:37;;;;;;;28.35;20.55;;;17.20;99.90;;;;;;5056978;28;20201;-71
2021/06/08 07:35:10;;;;;;;27.77;20.90;;;17.30;99.90;;;;;;5063788;28;20194;-71
2021/06/08 07:37:43;;;;;;;27.13;20.48;;;17.40;99.90;;;;;;5062736;28;20321;-72
2021/06/08 07:40:14;;;;;;;25.65;19.25;;;17.60;99.90;;;;;;5066013;28;20607;-71
2021/06/08 07:42:43;;;;;;;27.27;19.67;;;17.90;99.90;;;;;;5057332;28;20285;-71
2021/06/08 07:45:13;;;;;;;26.25;19.35;;;18.00;99.90;;;;;;5068967;28;20222;-71
2021/06/08 07:47:42;;;;;;;25.63;19.90;;;18.00;99.90;;;;;;5064607;28;20199;-72
2021/06/08 07:50:10;;;;;;;26.40;18.50;;;18.00;99.90;;;;;;5068544;28;20652;-72
2021/06/08 07:52:38;;;;;;;24.50;17.95;;;18.20;99.90;;;;;;5053262;28;20649;-72
2021/06/08 07:55:07;;;;;;;22.90;17.45;;;18.50;99.90;;;;;;5057803;28;20195;-71
2021/06/08 07:57:33;;;;;;;27.60;17.63;;;18.50;99.90;;;;;;5059972;28;20207;-72
2021/06/08 07:59:59;;;;;;;24.15;17.95;;;18.60;99.90;;;;;;5053967;28;20232;-72
2021/06/08 08:02:27;;;;;;;25.58;18.55;;;18.50;99.90;;;;;;5072973;28;20198;-72
2021/06/08 08:04:57;;;;;;;24.63;18.33;;;18.60;99.90;;;;;;5052768;28;20615;-71
2021/06/08 08:07:25;;;;;;;26.02;19.10;;;18.40;99.90;;;;;;5052693;28;20669;-72
2021/06/08 08:09:53;;;;;;;25.27;19.60;;;18.70;99.90;;;;;;5053010;28;20207;-71
2021/06/08 08:12:21;;;;;;;24.13;18.30;;;18.60;99.90;;;;;;5055837;28;20221;-72
2021/06/08 08:14:51;;;;;;;27.02;19.02;;;18.80;99.90;;;;;;5066518;28;20553;-72
2021/06/08 08:17:18;;;;;;;26.15;19.83;;;18.80;99.90;;;;;;5053178;28;20211;-71
2021/06/08 08:19:47;;;;;;;24.63;19.15;;;19.00;99.90;;;;;;5062391;28;20218;-71
2021/06/08 08:22:13;;;;;;;28.40;19.63;;;18.90;99.90;;;;;;5063199;28;20692;-71
2021/06/08 08:24:40;;;;;;;23.95;18.48;;;18.80;99.90;;;;;;5068943;28;20218;-71
2021/06/08 08:27:07;;;;;;;23.63;18.40;;;18.90;99.90;;;;;;5070801;28;20211;-71
2021/06/08 08:29:34;;;;;;;28.40;20.88;;;19.20;99.90;;;;;;5060969;28;20210;-71
2021/06/08 08:32:01;;;;;;;29.08;21.45;;;19.30;99.90;;;;;;5051432;28;20214;-71
2021/06/08 08:34:27;;;;;;;27.35;20.95;;;19.00;99.90;;;;;;5063967;28;20252;-71
2021/06/08 08:36:56;;;;;;;26.58;19.85;;;19.00;99.90;;;;;;5054490;28;20210;-71
2021/06/08 08:39:23;;;;;;;24.75;19.90;;;19.10;99.90;;;;;;5058008;28;20300;-71
2021/06/08 08:41:54;;;;;;;27.60;20.77;;;19.40;99.90;;;;;;5049502;28;20203;-71
2021/06/08 08:44:20;;;;;;;27.38;20.73;;;19.20;99.90;;;;;;5048242;28;20218;-71
2021/06/08 08:46:47;;;;;;;25.77;19.27;;;19.30;99.90;;;;;;5048940;28;20207;-71
2021/06/08 08:49:14;;;;;;;26.75;20.52;;;19.20;99.90;;;;;;5063864;28;20215;-71
2021/06/08 08:51:42;;;;;;;24.73;19.52;;;19.70;99.90;;;;;;5061645;28;20215;-71
2021/06/08 08:54:12;;;;;;;27.13;21.33;;;20.20;99.90;;;;;;5049824;28;20195;-70
2021/06/08 08:56:41;;;;;;;28.40;21.60;;;20.20;99.90;;;;;;5048907;28;20455;-71
2021/06/08 08:59:09;;;;;;;28.70;21.35;;;19.90;99.90;;;;;;5059783;28;20865;-71
2021/06/08 09:01:38;;;;;;;29.60;21.63;;;19.60;99.90;;;;;;5065980;28;20206;-71
2021/06/08 09:04:06;;;;;;;29.45;21.13;;;19.80;99.90;;;;;;5047657;28;20222;-71
2021/06/08 09:06:33;;;;;;;26.40;19.75;;;19.80;99.90;;;;;;5048670;28;20203;-71
2021/06/08 09:09:00;;;;;;;27.88;20.85;;;20.10;99.90;;;;;;5047564;28;20202;-71
2021/06/08 09:11:31;;;;;;;28.23;20.15;;;20.30;99.90;;;;;;5049888;28;20332;-71
2021/06/08 09:13:57;;;;;;;28.70;20.25;;;20.30;99.90;;;;;;5049394;28;20279;-71
2021/06/08 09:16:24;;;;;;;27.48;19.77;;;20.40;99.90;;;;;;5047913;28;20210;-71
2021/06/08 09:18:52;;;;;;;27.65;20.63;;;20.40;99.90;;;;;;5050911;28;20206;-71
2021/06/08 09:21:21;;;;;;;28.08;20.58;;;20.20;99.90;;;;;;5059878;28;20207;-71
2021/06/08 09:23:48;;;;;;;27.77;20.48;;;19.70;99.90;;;;;;5062125;28;20219;-71
2021/06/08 09:26:15;;;;;;;28.23;21.05;;;19.80;99.90;;;;;;5051103;28;20213;-71
2021/06/08 09:28:44;;;;;;;26.65;20.20;;;20.40;99.90;;;;;;5064166;28;20285;-71
2021/06/08 09:31:13;;;;;;;25.85;19.33;;;21.50;99.90;;;;;;5058163;28;20233;-71
2021/06/08 09:33:41;;;;;;;27.05;21.30;;;21.20;99.90;;;;;;5058435;28;20210;-71
2021/06/08 09:36:12;;;;;;;28.85;21.05;;;21.00;99.90;;;;;;5047913;28;20268;-71
2021/06/08 09:38:44;;;;;;;24.30;18.90;;;20.90;99.90;;;;;;5050510;28;20220;-71
2021/06/08 09:41:15;;;;;;;24.05;18.60;;;20.80;99.90;;;;;;5062880;28;20251;-71
2021/06/08 09:43:56;;;;;;;27.33;20.00;;;21.40;99.90;;;;;;5059007;28;20751;-71
2021/06/08 09:46:22;;;;;;;23.45;18.42;;;21.30;99.90;;;;;;5054480;28;20202;-71
2021/06/08 09:48:51;;;;;;;24.45;19.33;;;21.90;99.90;;;;;;5038291;28;20289;-71
2021/06/08 09:51:18;;;;;;;26.63;18.85;;;22.10;99.90;;;;;;5053173;28;20217;-71
2021/06/08 09:53:44;;;;;;;28.40;20.23;;;21.40;99.90;;;;;;5063155;28;20582;-71
2021/06/08 09:56:12;;;;;;;27.42;20.65;;;21.60;99.90;;;;;;5046465;28;20685;-71
2021/06/08 09:58:44;;;;;;;27.55;21.00;;;22.20;99.90;;;;;;5049131;28;20242;-71
2021/06/08 10:01:15;;;;;;;26.58;21.23;;;22.20;99.90;;;;;;5048937;28;20202;-71
2021/06/08 10:03:45;;;;;;;25.90;19.33;;;22.10;99.90;;;;;;5060781;28;20770;-71
2021/06/08 10:06:13;;;;;;;24.80;18.50;;;22.30;99.90;;;;;;5061135;28;20605;-71
2021/06/08 10:08:50;;;;;;;25.70;19.98;;;22.70;99.90;;;;;;5053073;28;20203;-71
2021/06/08 10:11:17;;;;;;;27.90;21.38;;;23.30;99.90;;;;;;5047676;28;20202;-71
2021/06/08 10:13:44;;;;;;;26.88;19.77;;;22.10;99.90;;;;;;5043600;28;20605;-71
2021/06/08 10:16:12;;;;;;;24.10;19.30;;;22.40;99.90;;;;;;5047950;28;20261;-71
2021/06/08 10:18:44;;;;;;;26.15;19.70;;;22.50;99.90;;;;;;5052558;28;20467;-72
2021/06/08 10:21:12;;;;;;;25.63;19.23;;;21.90;99.90;;;;;;5050439;28;20206;-71
2021/06/08 10:23:38;;;;;;;26.83;20.45;;;21.90;99.90;;;;;;5043872;28;20226;-70
2021/06/08 10:26:11;;;;;;;24.67;18.75;;;22.10;99.90;;;;;;5043274;28;20210;-70
2021/06/08 10:28:38;;;;;;;23.73;17.63;;;23.00;99.90;;;;;;5061797;28;20267;-70
2021/06/08 10:31:06;;;;;;;22.27;17.73;;;22.70;99.90;;;;;;5050704;28;20582;-70
2021/06/08 10:33:33;;;;;;;22.65;18.10;;;22.50;99.90;;;;;;5058089;28;20203;-70
2021/06/08 10:36:01;;;;;;;26.38;20.42;;;22.80;99.90;;;;;;5058675;28;20210;-70
2021/06/08 10:38:28;;;;;;;26.17;19.52;;;23.00;99.90;;;;;;5055582;28;20210;-70
2021/06/08 10:40:56;;;;;;;28.42;22.02;;;23.20;99.90;;;;;;5049110;28;20198;-70
2021/06/08 10:43:24;;;;;;;29.20;22.60;;;22.20;99.90;;;;;;5062977;28;20206;-70
2021/06/08 10:45:55;;;;;;;29.33;22.63;;;21.60;99.90;;;;;;5060100;28;20214;-70
2021/06/08 10:48:27;;;;;;;26.45;19.48;;;21.60;99.90;;;;;;5055877;28;20235;-70
2021/06/08 10:51:11;;;;;;;29.23;21.20;;;21.80;99.90;;;;;;5052364;28;20239;-70
2021/06/08 10:53:41;;;;;;;28.08;21.70;;;21.90;99.90;;;;;;5057991;28;20198;-70
2021/06/08 10:56:23;;;;;;;25.65;18.48;;;22.30;99.90;;;;;;5048177;28;20473;-68
2021/06/08 10:58:51;;;;;;;26.40;19.27;;;22.30;99.90;;;;;;5056288;28;20220;-70
2021/06/08 11:01:43;;;;;;;26.20;19.33;;;22.30;99.90;;;;;;5058063;28;20214;-71
2021/06/08 11:04:12;;;;;;;25.90;19.80;;;22.10;99.90;;;;;;5054807;28;20224;-71
2021/06/08 11:06:49;;;;;;;24.75;18.15;;;22.10;99.90;;;;;;5061892;28;20213;-71
2021/06/08 11:09:17;;;;;;;23.75;18.02;;;22.60;99.90;;;;;;5050451;28;20270;-71
2021/06/08 11:11:52;;;;;;;24.50;18.25;;;22.40;99.90;;;;;;5053764;28;20228;-71
2021/06/08 11:14:54;;;;;;;23.25;18.05;;;22.50;99.90;;;;;;5044020;28;20213;-71
2021/06/08 11:17:39;;;;;;;25.27;18.80;;;22.60;99.90;;;;;;5058032;28;20317;-71
2021/06/08 11:20:23;;;;;;;21.52;16.23;;;22.30;99.90;;;;;;5048338;28;20261;-71
2021/06/08 11:22:55;;;;;;;24.85;17.52;;;22.30;99.90;;;;;;5056297;28;20221;-72
2021/06/08 11:25:32;;;;;;;22.77;17.15;;;22.20;99.90;;;;;;5048962;28;20222;-71
2021/06/08 11:28:00;;;;;;;23.13;17.63;;;22.30;99.90;;;;;;5048887;28;20638;-72
2021/06/08 11:30:32;;;;;;;25.38;19.63;;;22.50;99.90;;;;;;5049633;28;20203;-72
2021/06/08 11:33:01;;;;;;;22.17;15.82;;;22.70;99.90;;;;;;5048679;28;20214;-72
2021/06/08 11:35:33;;;;;;;21.90;15.70;;;23.40;99.90;;;;;;5060070;28;20199;-72
2021/06/08 11:38:05;;;;;;;23.75;17.25;;;24.20;99.90;;;;;;5061524;28;20593;-72
2021/06/08 11:40:59;;;;;;;26.63;19.63;;;24.20;99.90;;;;;;5065197;28;20281;-71
2021/06/08 11:43:59;;;;;;;25.77;18.65;;;23.90;99.90;;;;;;5049523;28;20202;-69
2021/06/08 11:46:31;;;;;;;24.65;17.58;;;24.40;99.90;;;;;;5049385;28;20215;-69
2021/06/08 11:49:15;;;;;;;26.27;19.88;;;24.70;99.90;;;;;;5046216;28;20214;-68
2021/06/08 11:52:00;;;;;;;21.52;17.05;;;23.70;99.90;;;;;;5054474;28;20210;-69
2021/06/08 11:54:55;;;;;;;24.42;17.13;;;23.30;99.90;;;;;;5050693;28;20209;-68
2021/06/08 11:57:37;;;;;;;22.30;16.15;;;23.40;99.90;;;;;;5011599;28;20211;-69
2021/06/08 12:00:06;;;;;;;20.60;16.23;;;23.40;99.90;;;;;;5049067;28;20202;-69
2021/06/08 12:02:35;;;;;;;20.23;15.35;;;24.30;99.90;;;;;;5060904;28;20518;-69
2021/06/08 12:05:22;;;;;;;21.13;15.40;;;24.80;99.90;;;;;;5054785;28;20226;-68
2021/06/08 12:07:51;;;;;;;20.98;15.32;;;24.60;99.90;;;;;;5051430;28;20357;-68
2021/06/08 12:10:34;;;;;;;21.85;14.73;;;25.10;99.90;;;;;;5055694;28;20210;-69
2021/06/08 12:13:01;;;;;;;21.35;16.13;;;25.30;99.90;;;;;;5056277;28;20253;-69
2021/06/08 12:15:31;;;;;;;19.83;15.50;;;25.60;99.90;;;;;;5045410;28;20237;-68
2021/06/08 12:18:04;;;;;;;19.83;16.05;;;25.60;99.90;;;;;;5058741;28;20210;-69
2021/06/08 12:20:31;;;;;;;22.90;15.80;;;25.40;99.90;;;;;;5047497;28;20203;-69
2021/06/08 12:22:58;;;;;;;19.75;16.10;;;25.30;99.90;;;;;;5064172;28;20325;-69
2021/06/08 12:25:25;;;;;;;19.65;14.48;;;25.20;99.90;;;;;;5057713;28;20227;-69
2021/06/08 12:27:53;;;;;;;23.33;16.23;;;25.00;99.90;;;;;;5051803;28;20211;-68
2021/06/08 12:30:23;;;;;;;22.67;18.17;;;24.60;99.90;;;;;;5056258;28;20206;-68
2021/06/08 12:32:54;;;;;;;26.58;19.38;;;24.00;99.90;;;;;;5065495;28;20293;-68
2021/06/08 12:35:23;;;;;;;24.55;17.15;;;23.70;99.90;;;;;;5064269;28;20202;-69
2021/06/08 12:37:49;;;;;;;29.08;19.27;;;24.10;99.90;;;;;;5063543;28;20692;-68
2021/06/08 12:40:17;;;;;;;27.30;20.38;;;24.00;99.90;;;;;;5045694;28;20218;-68
2021/06/08 12:42:45;;;;;;;26.98;21.27;;;24.00;99.90;;;;;;5057470;28;20210;-68